Route Details

Aircraft Information
Group: Boeing 737 Only
Types: B738
Route Data
Distance: 198nm
Duration: 0h 45m
Origin METAR: MMMX 181723Z 12006KT 5SM SCT020 22/11 A3033 NOSIG RMK 8/200 HZY DSNT TCU S
Dest. METAR: MMOX 181640Z 09005KT 10SM FEW015 BKN220 23/12 A3025 RMK 8/102
Freight Data
(for Aug 18, 2022)
Load Factor:
58%
Manifested Cargo: 30,933lbs
Financial History
Total Freight: 81,229lbs
Average Load: 0lbs/flt
Fuel Used: 12,437lbs
Avg. Fuel Used: 0lbs/flt
Fuel Expense: $5,995
Avg. Fuel Expense: $0
Avg. Fuel Cost: $0/lbs
Total Gross Income: $253,434
Pilot Pay: $787
Total Expenses: $40,859
Total Revenue: $205,806
Average Revenue: $0

Capitol Logistics 788




MMMX
Benito Juárez International Airport
Mexico City, MX
MMOX
Xoxocotlán International Airport
Oaxaca, MX

Activity Log

Date Flight Route Aircraft Duration
08/06/2022 CPX788 TEVO2B TEVOS UT113 OAX DCT B738 0h 55m
05/29/2022 CPX3133 TEVO1A TEVOS UT113 OAX B738 1h 01m
03/09/2022 CPX3133 TEVO1A TEVOS UT113 OAX B738 0h 57m